Time;durP1;ratioP1;P1;durP2;ratioP2;P2;SDS_P1;SDS_P2;PMS_P1;PMS_P2;Temp;Humidity;BMP_temperature;BMP_pressure;BME280_temperature;BME280_humidity;BME280_pressure;Samples;Min_cycle;Max_cycle;Signal;HPM_P1;HPM_P2
2021/03/20 00:01:13;;;;;;;;;;;;;;;17.07;34.80;100871.25;4397576;32;20319;-54
2021/03/20 00:03:39;;;;;;;;;;;;;;;17.10;34.70;100874.00;4402731;32;19997;-54
2021/03/20 00:06:05;;;;;;;;;;;;;;;17.09;34.71;100874.81;4401472;32;20284;-54
2021/03/20 00:08:31;;;;;;;;;;;;;;;17.06;34.78;100882.62;4400566;32;20347;-52
2021/03/20 00:10:57;;;;;;;;;;;;;;;17.07;34.76;100881.78;4400558;32;19962;-54
2021/03/20 00:13:22;;;;;;;;;;;;;;;17.07;34.67;100884.41;4401905;32;20037;-54
2021/03/20 00:15:48;;;;;;;;;;;;;;;17.07;34.77;100887.03;4401163;32;20402;-54
2021/03/20 00:18:14;;;;;;;;;;;;;;;17.06;34.70;100890.50;4400344;32;20021;-54
2021/03/20 00:20:40;;;;;;;;;;;;;;;17.03;34.79;100890.41;4400695;32;21059;-54
2021/03/20 00:23:06;;;;;;;;;;;;;;;17.02;34.78;100888.63;4400298;32;19980;-53
2021/03/20 00:25:32;;;;;;;;;;;;;;;17.03;34.73;100887.78;4412080;32;19958;-53
2021/03/20 00:27:58;;;;;;;;;;;;;;;16.99;34.76;100883.22;4416252;32;20030;-52
2021/03/20 00:30:24;;;;;;;;;;;;;;;17.03;34.68;100889.50;4414977;32;19989;-53
2021/03/20 00:32:50;;;;;;;;;;;;;;;17.01;34.74;100886.84;4416798;32;19942;-55
2021/03/20 00:35:16;;;;;;;;;;;;;;;17.07;34.60;100894.94;4416170;32;19955;-54
2021/03/20 00:37:42;;;;;;;;;;;;;;;17.04;34.62;100896.56;4411414;32;20367;-54
2021/03/20 00:40:08;;;;;;;;;;;;;;;17.02;34.69;100885.09;4416076;32;19954;-52
2021/03/20 00:42:34;;;;;;;;;;;;;;;17.01;34.63;100892.09;4415716;32;20400;-52
2021/03/20 00:44:59;;;;;;;;;;;;;;;16.98;34.71;100891.97;4416181;32;19977;-54
2021/03/20 00:47:25;;;;;;;;;;;;;;;17.01;34.66;100892.09;4415472;32;19959;-54
2021/03/20 00:49:51;;;;;;;;;;;;;;;16.99;34.66;100883.22;4416212;32;20004;-51
2021/03/20 00:52:17;;;;;;;;;;;;;;;16.95;34.72;100894.47;4413761;32;19985;-50
2021/03/20 00:54:43;;;;;;;;;;;;;;;16.94;34.75;100879.53;4414799;32;19958;-55
2021/03/20 00:57:09;;;;;;;;;;;;;;;16.92;34.78;100887.38;4414407;32;20032;-55
2021/03/20 00:59:37;;;;;;;;;;;;;;;16.87;34.80;100891.56;4415697;32;20405;-54
2021/03/20 01:02:02;;;;;;;;;;;;;;;16.84;34.81;100889.72;4415534;32;20310;-51
2021/03/20 01:04:28;;;;;;;;;;;;;;;16.90;34.77;100888.16;4415455;32;19977;-53
2021/03/20 01:06:54;;;;;;;;;;;;;;;16.88;34.76;100896.00;4415014;32;19961;-53
2021/03/20 01:09:20;;;;;;;;;;;;;;;16.86;34.82;100892.41;4415639;32;19982;-54
2021/03/20 01:11:46;;;;;;;;;;;;;;;16.78;34.91;100900.03;4416339;32;19946;-54
2021/03/20 01:14:12;;;;;;;;;;;;;;;16.86;34.76;100897.69;4414613;32;19990;-54
2021/03/20 01:16:38;;;;;;;;;;;;;;;16.85;34.78;100901.16;4416294;32;19968;-52
2021/03/20 01:19:04;;;;;;;;;;;;;;;16.81;34.77;100899.28;4413186;32;19952;-53
2021/03/20 01:21:29;;;;;;;;;;;;;;;16.78;34.84;100904.41;4416067;32;19942;-53
2021/03/20 01:23:55;;;;;;;;;;;;;;;16.82;34.72;100899.31;4416063;32;19995;-53
2021/03/20 01:26:21;;;;;;;;;;;;;;;16.74;34.87;100895.53;4414254;32;19945;-55
2021/03/20 01:28:47;;;;;;;;;;;;;;;16.80;34.79;100897.47;4412809;32;20042;-54
2021/03/20 01:31:13;;;;;;;;;;;;;;;16.85;34.68;100902.06;4414729;32;20035;-52
2021/03/20 01:33:39;;;;;;;;;;;;;;;16.82;34.70;100907.19;4415541;32;20349;-53
2021/03/20 01:36:05;;;;;;;;;;;;;;;16.81;34.72;100905.41;4414575;32;19946;-53
2021/03/20 01:38:31;;;;;;;;;;;;;;;16.85;34.66;100907.31;4414773;32;20014;-52
2021/03/20 01:40:57;;;;;;;;;;;;;;;16.86;34.63;100910.84;4414974;32;19958;-55
2021/03/20 01:43:22;;;;;;;;;;;;;;;16.85;34.64;100909.03;4415219;32;20033;-52
2021/03/20 01:45:48;;;;;;;;;;;;;;;16.78;34.74;100900.03;4415254;32;20054;-53
2021/03/20 01:48:14;;;;;;;;;;;;;;;16.78;34.74;100905.31;4413148;32;19969;-53
2021/03/20 01:50:40;;;;;;;;;;;;;;;16.81;34.67;100897.50;4414234;32;19958;-51
2021/03/20 01:53:06;;;;;;;;;;;;;;;16.75;34.72;100904.28;4413578;32;20066;-54
2021/03/20 01:55:32;;;;;;;;;;;;;;;16.71;34.77;100898.94;4414690;32;19983;-53
2021/03/20 01:57:58;;;;;;;;;;;;;;;16.73;34.75;100901.63;4413833;32;19968;-51
2021/03/20 02:00:24;;;;;;;;;;;;;;;16.67;34.85;100899.66;4409926;32;20025;-54
2021/03/20 02:02:50;;;;;;;;;;;;;;;16.73;34.72;100906.88;4415085;32;19954;-52
2021/03/20 02:05:16;;;;;;;;;;;;;;;16.67;34.80;100907.56;4411425;32;19946;-55
2021/03/20 02:07:42;;;;;;;;;;;;;;;16.72;34.74;100899.81;4410866;32;20359;-53
2021/03/20 02:10:08;;;;;;;;;;;;;;;16.74;34.67;100903.41;4414727;32;19954;-52
2021/03/20 02:12:33;;;;;;;;;;;;;;;16.70;34.79;100896.22;4414920;32;19954;-54
2021/03/20 02:14:59;;;;;;;;;;;;;;;16.71;34.78;100898.03;4414904;32;20040;-54
2021/03/20 02:17:25;;;;;;;;;;;;;;;16.76;34.63;100898.19;4416363;32;19991;-54
2021/03/20 02:19:51;;;;;;;;;;;;;;;16.71;34.66;100892.75;4417694;32;19954;-51
2021/03/20 02:22:17;;;;;;;;;;;;;;;16.72;34.67;100892.81;4417117;32;19954;-53
2021/03/20 02:24:43;;;;;;;;;;;;;;;16.73;34.63;100891.09;4416893;32;19962;-52
2021/03/20 02:27:09;;;;;;;;;;;;;;;16.67;34.70;100886.53;4414936;32;19965;-52
2021/03/20 02:29:35;;;;;;;;;;;;;;;16.65;34.77;100876.78;4409145;32;20000;-53
2021/03/20 02:32:01;;;;;;;;;;;;;;;16.67;34.65;100881.25;4417997;32;19970;-54
2021/03/20 02:34:27;;;;;;;;;;;;;;;16.69;34.62;100873.41;4417111;32;19950;-53
2021/03/20 02:36:53;;;;;;;;;;;;;;;16.70;34.58;100869.94;4417462;32;20049;-54
2021/03/20 02:39:19;;;;;;;;;;;;;;;16.70;34.55;100870.84;4417429;32;21027;-53
2021/03/20 02:41:45;;;;;;;;;;;;;;;16.71;34.58;100875.25;4417264;32;19958;-53
2021/03/20 02:44:11;;;;;;;;;;;;;;;16.66;34.56;100874.19;4414070;32;19951;-54
2021/03/20 02:46:37;;;;;;;;;;;;;;;16.65;34.61;100868.88;4417802;32;20010;-55
2021/03/20 02:49:03;;;;;;;;;;;;;;;16.63;34.67;100874.09;4416167;32;19978;-50
2021/03/20 02:51:29;;;;;;;;;;;;;;;16.57;34.75;100868.63;4417332;32;20256;-52
2021/03/20 02:53:55;;;;;;;;;;;;;;;16.63;34.63;100884.59;4417151;32;19946;-53
2021/03/20 02:56:21;;;;;;;;;;;;;;;16.64;34.63;100885.50;4416905;32;20029;-54
2021/03/20 02:58:47;;;;;;;;;;;;;;;16.65;34.56;100892.56;4416974;32;20773;-54
2021/03/20 03:01:13;;;;;;;;;;;;;;;16.63;34.63;100896.88;4417187;32;19946;-53
2021/03/20 03:03:39;;;;;;;;;;;;;;;16.65;34.53;100897.81;4414622;32;19938;-53
2021/03/20 03:06:05;;;;;;;;;;;;;;;16.57;34.68;100901.06;4414022;32;19950;-53
2021/03/20 03:08:30;;;;;;;;;;;;;;;16.55;34.74;100901.84;4414272;32;19962;-52
2021/03/20 03:10:56;;;;;;;;;;;;;;;16.46;34.85;100907.66;4416855;32;19958;-53
2021/03/20 03:13:22;;;;;;;;;;;;;;;16.47;34.84;100912.06;4416426;32;22622;-53
2021/03/20 03:15:48;;;;;;;;;;;;;;;16.52;34.74;100917.50;4417385;32;19954;-54
2021/03/20 03:18:14;;;;;;;;;;;;;;;16.54;34.70;100926.31;4416326;32;20730;-54
2021/03/20 03:20:40;;;;;;;;;;;;;;;16.57;34.61;100916.81;4416950;32;19993;-54
2021/03/20 03:23:06;;;;;;;;;;;;;;;16.58;34.62;100912.47;4416729;32;19981;-54
2021/03/20 03:25:32;;;;;;;;;;;;;;;16.56;34.63;100904.53;4416886;32;19954;-51
2021/03/20 03:27:57;;;;;;;;;;;;;;;16.46;34.77;100914.66;4416332;32;20327;-51
2021/03/20 03:30:23;;;;;;;;;;;;;;;16.49;34.73;100913.03;4415456;32;20087;-53
2021/03/20 03:32:49;;;;;;;;;;;;;;;16.52;34.68;100918.41;4417222;32;20004;-54
2021/03/20 03:35:15;;;;;;;;;;;;;;;16.52;34.69;100902.63;4416028;32;20027;-54
2021/03/20 03:37:41;;;;;;;;;;;;;;;16.53;34.60;100909.69;4412738;32;19993;-55
2021/03/20 03:40:07;;;;;;;;;;;;;;;16.53;34.65;100914.94;4416514;32;20358;-53
2021/03/20 03:42:33;;;;;;;;;;;;;;;16.44;34.77;100919.84;4416580;32;20016;-54
2021/03/20 03:44:59;;;;;;;;;;;;;;;16.43;34.82;100918.06;4416989;32;19988;-55
2021/03/20 03:47:25;;;;;;;;;;;;;;;16.41;34.81;100922.38;4415539;32;20339;-54
2021/03/20 03:49:50;;;;;;;;;;;;;;;16.48;34.70;100924.38;4416456;32;19966;-54
2021/03/20 03:52:16;;;;;;;;;;;;;;;16.54;34.58;100929.88;4416233;32;19954;-51
2021/03/20 03:54:42;;;;;;;;;;;;;;;16.53;34.60;100929.81;4414824;32;19961;-54
2021/03/20 03:57:08;;;;;;;;;;;;;;;16.53;34.58;100941.22;4415705;32;19958;-52
2021/03/20 03:59:34;;;;;;;;;;;;;;;16.54;34.55;100924.59;4416370;32;20019;-54
2021/03/20 04:02:00;;;;;;;;;;;;;;;16.53;34.59;100933.34;4416946;32;19979;-53
2021/03/20 04:04:26;;;;;;;;;;;;;;;16.47;34.67;100935.72;4416463;32;20497;-54
2021/03/20 04:06:52;;;;;;;;;;;;;;;16.47;34.69;100925.22;4415456;32;19999;-53
2021/03/20 04:09:18;;;;;;;;;;;;;;;16.41;34.78;100911.84;4415263;32;19969;-53
2021/03/20 04:11:44;;;;;;;;;;;;;;;16.48;34.68;100919.09;4414825;32;19954;-55
2021/03/20 04:14:10;;;;;;;;;;;;;;;16.49;34.60;100902.53;4415509;32;19990;-50
2021/03/20 04:16:36;;;;;;;;;;;;;;;16.52;34.58;100901.72;4413609;32;19953;-54
2021/03/20 04:19:01;;;;;;;;;;;;;;;16.41;34.76;100909.22;4416002;32;19962;-51
2021/03/20 04:21:27;;;;;;;;;;;;;;;16.40;34.77;100915.31;4401327;32;20430;-54
2021/03/20 04:23:53;;;;;;;;;;;;;;;16.46;34.63;100917.28;4409300;32;20028;-50
2021/03/20 04:26:19;;;;;;;;;;;;;;;16.45;34.61;100916.38;4415393;32;20074;-53
2021/03/20 04:28:45;;;;;;;;;;;;;;;16.44;34.63;100915.50;4415779;32;19954;-51
2021/03/20 04:31:11;;;;;;;;;;;;;;;16.47;34.55;100925.22;4414450;32;19950;-53
2021/03/20 04:33:37;;;;;;;;;;;;;;;16.44;34.61;100925.09;4416496;32;19997;-53
2021/03/20 04:36:03;;;;;;;;;;;;;;;16.43;34.61;100928.56;4412112;32;19954;-52
2021/03/20 04:38:29;;;;;;;;;;;;;;;16.39;34.67;100938.06;4412418;32;19980;-52
2021/03/20 04:40:55;;;;;;;;;;;;;;;16.43;34.58;100933.81;4415468;32;19968;-52
2021/03/20 04:43:20;;;;;;;;;;;;;;;16.44;34.60;100930.34;4415349;32;19954;-52
2021/03/20 04:45:46;;;;;;;;;;;;;;;16.30;34.83;100938.63;4415679;32;19958;-52
2021/03/20 04:48:12;;;;;;;;;;;;;;;16.36;34.72;100947.56;4415471;32;20016;-53
2021/03/20 04:50:38;;;;;;;;;;;;;;;16.43;34.61;100944.34;4415326;32;20569;-54
2021/03/20 04:53:04;;;;;;;;;;;;;;;16.36;34.70;100950.19;4414760;32;19988;-54
2021/03/20 04:55:30;;;;;;;;;;;;;;;16.39;34.67;100960.84;4415818;32;19953;-53
2021/03/20 04:57:56;;;;;;;;;;;;;;;16.37;34.69;100962.53;4415238;32;20360;-54
2021/03/20 05:00:22;;;;;;;;;;;;;;;16.37;34.69;100965.16;4414447;32;19958;-54
2021/03/20 05:02:47;;;;;;;;;;;;;;;16.37;34.63;100968.66;4415662;32;19965;-53
2021/03/20 05:05:13;;;;;;;;;;;;;;;16.39;34.58;100968.72;4415144;32;20562;-50
2021/03/20 05:07:39;;;;;;;;;;;;;;;16.37;34.64;100968.66;4414717;32;19989;-52
2021/03/20 05:10:05;;;;;;;;;;;;;;;16.29;34.75;100970.09;4415066;32;20481;-51
2021/03/20 05:12:31;;;;;;;;;;;;;;;16.26;34.78;100968.25;4415897;32;19995;-54
2021/03/20 05:14:57;;;;;;;;;;;;;;;16.24;34.84;100969.94;4415161;32;19965;-54
2021/03/20 05:17:23;;;;;;;;;;;;;;;16.27;34.77;100963.88;4414773;32;20079;-54
2021/03/20 05:19:49;;;;;;;;;;;;;;;16.25;34.80;100965.56;4413853;32;19954;-50
2021/03/20 05:22:15;;;;;;;;;;;;;;;16.29;34.71;100963.13;4414970;32;20374;-54
2021/03/20 05:24:40;;;;;;;;;;;;;;;16.13;35.02;100961.63;4414969;32;19965;-54
2021/03/20 05:27:06;;;;;;;;;;;;;;;16.18;34.94;100959.16;4413169;32;20291;-52
2021/03/20 05:29:32;;;;;;;;;;;;;;;16.12;34.99;100972.09;4414777;32;19954;-50
2021/03/20 05:31:58;;;;;;;;;;;;;;;16.08;35.11;100971.06;4415001;32;19989;-52
2021/03/20 05:34:24;;;;;;;;;;;;;;;16.16;34.99;100979.25;4415076;32;19954;-54
2021/03/20 05:36:50;;;;;;;;;;;;;;;16.10;35.07;100986.88;4413792;32;20065;-51
2021/03/20 05:39:16;;;;;;;;;;;;;;;16.02;35.21;100984.84;4414640;32;19991;-54
2021/03/20 05:41:42;;;;;;;;;;;;;;;16.09;35.08;100990.34;4415270;32;19954;-52
2021/03/20 05:44:08;;;;;;;;;;;;;;;15.98;35.27;100993.41;4413986;32;19969;-54
2021/03/20 05:46:33;;;;;;;;;;;;;;;15.79;35.63;100998.75;4415065;32;20387;-53
2021/03/20 05:48:59;;;;;;;;;;;;;;;15.82;35.63;101007.66;4414914;32;20043;-53
2021/03/20 05:51:25;;;;;;;;;;;;;;;15.88;35.54;100999.13;4413845;32;20021;-53
2021/03/20 05:53:51;;;;;;;;;;;;;;;16.02;35.32;100994.44;4418745;32;20119;-53
2021/03/20 05:56:17;;;;;;;;;;;;;;;16.08;35.23;100993.78;4417954;32;19938;-53
2021/03/20 05:58:44;;;;;;;;;;;;;;;16.18;35.06;100988.09;4417424;32;19999;-52
2021/03/20 06:01:09;;;;;;;;;;;;;;;16.00;35.39;100986.53;4418382;32;19966;-54
2021/03/20 06:03:35;;;;;;;;;;;;;;;15.80;35.69;100990.91;4419221;32;21368;-52
2021/03/20 06:06:01;;;;;;;;;;;;;;;15.42;36.44;100980.63;4418737;32;20371;-53
2021/03/20 06:08:27;;;;;;;;;;;;;;;15.32;36.65;100983.66;4417005;32;20525;-50
2021/03/20 06:10:53;;;;;;;;;;;;;;;15.31;36.73;101008.12;4418517;32;19974;-53
2021/03/20 06:13:19;;;;;;;;;;;;;;;15.34;36.64;101021.38;4417750;32;20016;-52
2021/03/20 06:15:45;;;;;;;;;;;;;;;15.26;36.80;101021.03;4417212;32;20034;-48
2021/03/20 06:18:11;;;;;;;;;;;;;;;15.31;36.68;101018.62;4417807;32;19941;-52
2021/03/20 06:20:37;;;;;;;;;;;;;;;15.35;36.61;101014.41;4416481;32;19958;-49
2021/03/20 06:23:03;;;;;;;;;;;;;;;15.16;36.98;101029.34;4418337;32;19984;-52
2021/03/20 06:25:29;;;;;;;;;;;;;;;15.57;36.29;101039.84;4418305;32;20017;-52
2021/03/20 06:27:55;;;;;;;;;;;;;;;15.50;36.34;101045.69;4417669;32;20088;-53
2021/03/20 06:30:21;;;;;;;;;;;;;;;15.54;36.29;101042.34;4417314;32;19958;-53
2021/03/20 06:32:47;;;;;;;;;;;;;;;15.63;36.12;101044.47;4417944;32;19968;-53
2021/03/20 06:35:13;;;;;;;;;;;;;;;15.70;35.95;101044.78;4418092;32;19958;-53
2021/03/20 06:37:38;;;;;;;;;;;;;;;15.66;36.00;101048.13;4417220;32;19954;-53
2021/03/20 06:40:04;;;;;;;;;;;;;;;15.63;36.05;101045.38;4417262;32;19980;-51
2021/03/20 06:42:30;;;;;;;;;;;;;;;15.67;35.97;101042.03;4417798;32;19946;-53
2021/03/20 06:44:56;;;;;;;;;;;;;;;15.70;35.94;101044.78;4417849;32;19934;-52
2021/03/20 06:47:22;;;;;;;;;;;;;;;15.73;35.91;101039.66;4416763;32;19994;-50
2021/03/20 06:49:48;;;;;;;;;;;;;;;15.77;35.78;101040.69;4416268;32;19950;-52
2021/03/20 06:52:14;;;;;;;;;;;;;;;15.81;35.68;101039.09;4416996;32;20323;-52
2021/03/20 06:54:40;;;;;;;;;;;;;;;15.80;35.78;101039.94;4417926;32;19974;-53
2021/03/20 06:57:06;;;;;;;;;;;;;;;15.92;35.46;101039.56;4416840;32;20323;-52
2021/03/20 06:59:32;;;;;;;;;;;;;;;15.92;35.52;101045.72;4418275;32;19990;-50
2021/03/20 07:01:58;;;;;;;;;;;;;;;15.84;35.57;101047.09;4418354;32;19950;-53
2021/03/20 07:04:24;;;;;;;;;;;;;;;15.89;35.54;101053.44;4416189;32;19992;-52
2021/03/20 07:06:49;;;;;;;;;;;;;;;15.78;35.75;101052.09;4415903;32;20017;-52
2021/03/20 07:09:15;;;;;;;;;;;;;;;15.84;35.64;101047.09;4416988;32;20681;-53
2021/03/20 07:11:41;;;;;;;;;;;;;;;16.02;35.36;101053.16;4404643;32;19950;-54
2021/03/20 07:14:07;;;;;;;;;;;;;;;15.97;35.34;101054.69;4399773;32;19992;-53
2021/03/20 07:16:33;;;;;;;;;;;;;;;15.89;35.54;101056.09;4397104;32;19973;-51
2021/03/20 07:18:59;;;;;;;;;;;;;;;15.92;35.50;101056.22;4401185;32;20008;-52
2021/03/20 07:21:25;;;;;;;;;;;;;;;16.06;35.29;101061.16;4409284;32;19954;-55
2021/03/20 07:23:51;;;;;;;;;;;;;;;16.05;35.35;101064.63;4414167;32;20771;-54
2021/03/20 07:26:17;;;;;;;;;;;;;;;15.94;35.44;101070.31;4416607;32;19950;-52
2021/03/20 07:28:43;;;;;;;;;;;;;;;16.25;34.43;101071.59;4415878;32;19960;-52
2021/03/20 07:31:09;;;;;;;;;;;;;;;16.27;34.35;101069.00;4416341;32;20418;-54
2021/03/20 07:33:35;;;;;;;;;;;;;;;16.37;34.16;101078.19;4417225;32;19962;-55
2021/03/20 07:36:01;;;;;;;;;;;;;;;16.44;34.06;101077.59;4416630;32;19942;-53
2021/03/20 07:38:26;;;;;;;;;;;;;;;16.40;34.16;101078.31;4412780;32;19946;-53
2021/03/20 07:40:52;;;;;;;;;;;;;;;16.39;34.25;101084.41;4416538;32;19951;-52
2021/03/20 07:43:18;;;;;;;;;;;;;;;16.26;34.35;101083.91;4417185;32;19961;-54
2021/03/20 07:45:44;;;;;;;;;;;;;;;16.20;34.55;101088.91;4416308;32;19978;-55
2021/03/20 07:48:10;;;;;;;;;;;;;;;16.30;34.42;101077.94;4416285;32;19974;-53
2021/03/20 07:50:37;;;;;;;;;;;;;;;16.37;34.28;101091.34;4417163;32;19988;-54
2021/03/20 07:53:02;;;;;;;;;;;;;;;16.33;34.33;101100.81;4416657;32;20000;-50
2021/03/20 07:55:29;;;;;;;;;;;;;;;16.23;34.41;101104.78;4416760;32;19978;-52
2021/03/20 07:57:55;;;;;;;;;;;;;;;16.30;34.37;101100.69;4415661;32;19942;-55
2021/03/20 08:00:21;;;;;;;;;;;;;;;16.37;34.18;101107.09;4416442;32;20462;-54
2021/03/20 08:02:47;;;;;;;;;;;;;;;16.18;34.49;101106.34;4417156;32;19965;-53
2021/03/20 08:05:13;;;;;;;;;;;;;;;16.29;34.47;101107.69;4415437;32;19969;-54
2021/03/20 08:07:39;;;;;;;;;;;;;;;16.26;34.48;101109.28;4415493;32;19987;-55
2021/03/20 08:10:05;;;;;;;;;;;;;;;16.35;34.29;101103.50;4415263;32;19970;-54
2021/03/20 08:12:31;;;;;;;;;;;;;;;16.37;34.34;101096.59;4416311;32;19958;-53
2021/03/20 08:14:57;;;;;;;;;;;;;;;16.41;34.19;101103.75;4415950;32;20351;-55
2021/03/20 08:17:22;;;;;;;;;;;;;;;16.42;34.26;101101.19;4416399;32;20038;-52
2021/03/20 08:19:48;;;;;;;;;;;;;;;16.46;34.23;101101.31;4416893;32;19971;-55
2021/03/20 08:22:14;;;;;;;;;;;;;;;16.41;34.31;101112.53;4415936;32;20370;-55
2021/03/20 08:24:40;;;;;;;;;;;;;;;16.38;34.36;101107.16;4414438;32;20010;-55
2021/03/20 08:27:06;;;;;;;;;;;;;;;16.44;34.27;101119.66;4414889;32;19978;-53
2021/03/20 08:29:32;;;;;;;;;;;;;;;16.39;34.32;101119.44;4415824;32;20427;-53
2021/03/20 08:31:58;;;;;;;;;;;;;;;16.52;34.03;101123.50;4416027;32;19964;-54
2021/03/20 08:34:24;;;;;;;;;;;;;;;16.39;34.35;101127.34;4414739;32;19984;-54
2021/03/20 08:36:49;;;;;;;;;;;;;;;16.46;34.22;101117.97;4415786;32;20391;-55
2021/03/20 08:39:16;;;;;;;;;;;;;;;16.45;34.29;101116.19;4416076;32;19950;-55
2021/03/20 08:41:42;;;;;;;;;;;;;;;16.51;34.15;101132.22;4415873;32;20335;-55
2021/03/20 08:44:08;;;;;;;;;;;;;;;16.57;34.09;101137.72;4414327;32;19956;-54
2021/03/20 08:46:33;;;;;;;;;;;;;;;16.53;34.05;101134.87;4415540;32;20012;-55
2021/03/20 08:48:59;;;;;;;;;;;;;;;16.56;34.05;101151.69;4416686;32;19993;-55
2021/03/20 08:51:25;;;;;;;;;;;;;;;16.61;33.93;101159.78;4415972;32;20042;-54
2021/03/20 08:53:51;;;;;;;;;;;;;;;16.60;33.98;101151.81;4415000;32;20274;-54
2021/03/20 08:56:17;;;;;;;;;;;;;;;16.58;34.06;101149.13;4415609;32;19964;-54
2021/03/20 08:58:43;;;;;;;;;;;;;;;16.66;33.98;101145.06;4415366;32;19994;-54
2021/03/20 09:01:09;;;;;;;;;;;;;;;16.62;33.94;101131.75;4415845;32;19954;-52
2021/03/20 09:03:34;;;;;;;;;;;;;;;16.66;33.82;101138.91;4416675;32;20301;-55
2021/03/20 09:06:00;;;;;;;;;;;;;;;16.62;33.91;101151.03;4416730;32;19953;-54
2021/03/20 09:08:27;;;;;;;;;;;;;;;16.62;34.10;101137.00;4412992;32;19953;-55
2021/03/20 09:10:53;;;;;;;;;;;;;;;16.65;33.94;101145.03;4415278;32;20327;-54
2021/03/20 09:13:19;;;;;;;;;;;;;;;16.60;33.96;101130.78;4415171;32;19988;-54
2021/03/20 09:15:45;;;;;;;;;;;;;;;16.69;33.87;101146.94;4415803;32;19988;-54
2021/03/20 09:18:11;;;;;;;;;;;;;;;16.71;33.88;101140.00;4415563;32;20397;-55
2021/03/20 09:20:37;;;;;;;;;;;;;;;16.74;33.84;101144.47;4415343;32;20009;-55
2021/03/20 09:23:03;;;;;;;;;;;;;;;16.77;33.60;101132.34;4415024;32;19977;-54
2021/03/20 09:25:29;;;;;;;;;;;;;;;16.81;33.61;101139.53;4415647;32;19988;-51
2021/03/20 09:27:55;;;;;;;;;;;;;;;16.78;33.71;101142.03;4415700;32;20007;-52
2021/03/20 09:30:21;;;;;;;;;;;;;;;16.82;33.54;101122.91;4415502;32;20012;-53
2021/03/20 09:32:46;;;;;;;;;;;;;;;16.82;33.49;101122.91;4415746;32;20737;-53
2021/03/20 09:35:12;;;;;;;;;;;;;;;16.80;33.59;101126.31;4415444;32;20396;-55
2021/03/20 09:37:38;;;;;;;;;;;;;;;16.78;33.57;101121.00;4415013;32;19957;-54
2021/03/20 09:40:04;;;;;;;;;;;;;;;16.80;33.61;101124.56;4415310;32;19957;-54
2021/03/20 09:42:30;;;;;;;;;;;;;;;16.84;33.61;101115.97;4415695;32;20298;-55
2021/03/20 09:44:56;;;;;;;;;;;;;;;16.81;33.63;101115.84;4410887;32;19958;-54
2021/03/20 09:47:22;;;;;;;;;;;;;;;16.85;33.51;101115.16;4412162;32;19965;-54
2021/03/20 09:49:48;;;;;;;;;;;;;;;16.82;33.56;101115.00;4414579;32;19965;-54
2021/03/20 09:52:14;;;;;;;;;;;;;;;16.74;33.57;101108.56;4410890;32;20023;-54
2021/03/20 09:54:43;;;;;;;;;;;;;;;16.71;33.55;101108.44;4414258;32;20092;-54
2021/03/20 09:57:22;;;;;;;;;;;;;;;16.64;33.76;101109.03;4412887;32;20383;-52
2021/03/20 09:59:48;;;;;;;;;;;;;;;16.69;33.63;101100.50;4414412;32;19976;-54
2021/03/20 10:02:14;;;;;;;;;;;;;;;16.63;33.78;101104.63;4413577;32;20291;-55
2021/03/20 10:04:40;;;;;;;;;;;;;;;16.70;33.50;101098.75;4413634;32;20008;-53
2021/03/20 10:07:05;;;;;;;;;;;;;;;16.65;33.66;101105.56;4413856;32;19979;-55
2021/03/20 10:09:32;;;;;;;;;;;;;;;16.57;33.84;101102.66;4414231;32;20000;-53
2021/03/20 10:11:58;;;;;;;;;;;;;;;16.72;33.59;101099.69;4414397;32;19950;-54
2021/03/20 10:14:24;;;;;;;;;;;;;;;16.76;33.52;101096.38;4414197;32;19987;-54
2021/03/20 10:16:50;;;;;;;;;;;;;;;16.82;33.44;101088.69;4403048;32;20412;-51
2021/03/20 10:19:16;;;;;;;;;;;;;;;16.75;33.38;101094.59;4414500;32;19994;-54
2021/03/20 10:21:42;;;;;;;;;;;;;;;16.74;33.61;101090.16;4408331;32;20006;-55
2021/03/20 10:24:07;;;;;;;;;;;;;;;16.79;33.63;101096.47;4399397;32;20011;-55
2021/03/20 10:26:34;;;;;;;;;;;;;;;16.80;33.50;101085.13;4399186;32;19976;-54
2021/03/20 10:29:00;;;;;;;;;;;;;;;16.84;33.46;101089.66;4398680;32;19998;-55
2021/03/20 10:31:26;;;;;;;;;;;;;;;16.84;33.24;101100.16;4405633;32;20319;-54
2021/03/20 10:33:51;;;;;;;;;;;;;;;16.80;33.37;101098.28;4409990;32;19973;-55
2021/03/20 10:36:18;;;;;;;;;;;;;;;16.85;33.59;101102.00;4414205;32;19961;-54
2021/03/20 10:38:43;;;;;;;;;;;;;;;16.84;33.51;101094.91;4417432;32;20338;-55
2021/03/20 10:41:10;;;;;;;;;;;;;;;16.76;33.55;101091.09;4415160;32;20016;-54
2021/03/20 10:43:36;;;;;;;;;;;;;;;16.79;33.29;101092.94;4416656;32;19965;-52
2021/03/20 10:46:02;;;;;;;;;;;;;;;16.88;33.39;101089.78;4416994;32;19979;-53
2021/03/20 10:48:28;;;;;;;;;;;;;;;16.85;33.46;101091.47;4416332;32;20027;-55
2021/03/20 10:50:54;;;;;;;;;;;;;;;16.94;33.16;101090.00;4417761;32;20278;-51
2021/03/20 10:53:20;;;;;;;;;;;;;;;16.84;33.27;101088.78;4413760;32;20024;-54
2021/03/20 10:55:46;;;;;;;;;;;;;;;16.96;33.04;101088.31;4415370;32;19987;-54
2021/03/20 10:58:12;;;;;;;;;;;;;;;16.96;33.10;101088.31;4414802;32;19962;-52
2021/03/20 11:00:38;;;;;;;;;;;;;;;16.97;33.33;101079.59;4414205;32;19969;-54
2021/03/20 11:03:04;;;;;;;;;;;;;;;16.98;33.03;101078.78;4416862;32;19988;-55
2021/03/20 11:05:31;;;;;;;;;;;;;;;17.05;33.09;101075.56;4417210;32;20006;-55
2021/03/20 11:07:57;;;;;;;;;;;;;;;17.08;32.88;101074.78;4417266;32;19950;-55
2021/03/20 11:10:23;;;;;;;;;;;;;;;17.11;32.69;101075.81;4415420;32;21018;-55
2021/03/20 11:12:50;;;;;;;;;;;;;;;17.06;32.93;101082.59;4416682;32;19969;-55
2021/03/20 11:15:15;;;;;;;;;;;;;;;17.11;32.80;101086.31;4415765;32;19977;-54
2021/03/20 11:17:41;;;;;;;;;;;;;;;17.07;32.84;101087.03;4416168;32;19968;-55
2021/03/20 11:20:07;;;;;;;;;;;;;;;17.05;33.00;101083.44;4416400;32;19969;-54
2021/03/20 11:22:33;;;;;;;;;;;;;;;17.12;32.82;101088.13;4413267;32;19974;-52
2021/03/20 11:24:59;;;;;;;;;;;;;;;17.11;32.91;101078.44;4417067;32;20221;-55
2021/03/20 11:27:25;;;;;;;;;;;;;;;17.12;32.73;101081.94;4415254;32;20287;-55
2021/03/20 11:29:51;;;;;;;;;;;;;;;17.17;32.90;101076.84;4416562;32;19954;-53
2021/03/20 11:32:17;;;;;;;;;;;;;;;17.20;32.78;101071.69;4415631;32;19985;-53
2021/03/20 11:34:43;;;;;;;;;;;;;;;17.16;32.65;101067.16;4414785;32;19957;-54
2021/03/20 11:37:09;;;;;;;;;;;;;;;17.12;32.78;101053.91;4413880;32;19990;-52
2021/03/20 11:39:35;;;;;;;;;;;;;;;17.12;32.76;101055.62;4414711;32;19968;-56
2021/03/20 11:42:00;;;;;;;;;;;;;;;16.74;29.81;101060.31;4415140;32;19969;-49
2021/03/20 11:44:26;;;;;;;;;;;;;;;15.84;29.87;101057.59;4410986;32;20286;-52
2021/03/20 11:46:52;;;;;;;;;;;;;;;15.73;29.52;101054.53;4415665;32;20585;-53
2021/03/20 11:49:18;;;;;;;;;;;;;;;16.05;26.47;101052.41;4416537;32;19964;-53
2021/03/20 11:51:44;;;;;;;;;;;;;;;15.76;28.03;101052.03;4416722;32;20357;-49
2021/03/20 11:54:10;;;;;;;;;;;;;;;16.04;26.91;101049.69;4415312;32;20049;-54
2021/03/20 11:56:38;;;;;;;;;;;;;;;16.01;24.56;101046.13;4416007;32;19978;-49
2021/03/20 11:59:04;;;;;;;;;;;;;;;15.67;25.13;101046.38;4414579;32;20037;-50
2021/03/20 12:01:30;;;;;;;;;;;;;;;15.83;25.72;101045.31;4405218;32;19958;-51
2021/03/20 12:03:56;;;;;;;;;;;;;;;15.27;24.72;101042.94;4416101;32;19991;-50
2021/03/20 12:06:22;;;;;;;;;;;;;;;15.37;24.82;101047.78;4414051;32;20311;-53
2021/03/20 12:08:48;;;;;;;;;;;;;;;15.50;23.18;101032.56;4415981;32;19958;-51
2021/03/20 12:11:14;;;;;;;;;;;;;;;15.07;24.08;101035.06;4415153;32;19958;-52
2021/03/20 12:13:39;;;;;;;;;;;;;;;15.24;25.09;101042.78;4415616;32;20023;-49
2021/03/20 12:16:05;;;;;;;;;;;;;;;14.93;24.48;101038.81;4415651;32;19973;-53
2021/03/20 12:18:31;;;;;;;;;;;;;;;15.26;25.08;101036.78;4416341;32;20252;-51
2021/03/20 12:20:57;;;;;;;;;;;;;;;15.34;25.01;101044.09;4415960;32;19962;-51
2021/03/20 12:23:23;;;;;;;;;;;;;;;15.49;24.18;101033.34;4414601;32;20799;-51
2021/03/20 12:25:49;;;;;;;;;;;;;;;15.65;24.72;101030.56;4415309;32;19983;-50
2021/03/20 12:28:15;;;;;;;;;;;;;;;15.81;22.84;101020.72;4414754;32;19973;-51